Time;durP1;ratioP1;P1;durP2;ratioP2;P2;SDS_P1;SDS_P2;PMS_P1;PMS_P2;Temp;Humidity;BMP_temperature;BMP_pressure;BME280_temperature;BME280_humidity;BME280_pressure;Samples;Min_cycle;Max_cycle;Signal;HPM_P1;HPM_P2
2023/07/25 00:01:40;;;;;;;;;;;;;;;19.06;66.70;97034.13;5026206;28;19932;-64
2023/07/25 00:04:08;;;;;;;;;;;;;;;18.94;67.34;97034.50;5031436;28;19975;-65
2023/07/25 00:06:36;;;;;;;;;;;;;;;18.99;67.02;97031.38;5027662;28;19925;-65
2023/07/25 00:09:03;;;;;;;;;;;;;;;18.95;66.92;97036.84;5018538;28;19925;-64
2023/07/25 00:11:31;;;;;;;;;;;;;;;18.90;67.06;97025.44;5028853;28;19944;-66
2023/07/25 00:14:00;;;;;;;;;;;;;;;18.90;67.13;97019.94;5026537;28;20022;-65
2023/07/25 00:16:28;;;;;;;;;;;;;;;18.87;67.43;97017.97;5034211;28;19925;-65
2023/07/25 00:18:57;;;;;;;;;;;;;;;18.89;66.94;97018.34;5028473;28;19971;-64
2023/07/25 00:21:25;;;;;;;;;;;;;;;18.92;66.84;97020.34;5036669;28;20362;-65
2023/07/25 00:23:53;;;;;;;;;;;;;;;18.89;67.15;97015.59;5040537;28;20440;-64
2023/07/25 00:26:20;;;;;;;;;;;;;;;18.90;67.20;97009.69;5043937;28;19929;-65
2023/07/25 00:28:48;;;;;;;;;;;;;;;18.89;67.02;97016.38;5023619;28;19925;-64
2023/07/25 00:31:16;;;;;;;;;;;;;;;18.83;67.32;97024.22;5034893;28;20016;-65
2023/07/25 00:33:44;;;;;;;;;;;;;;;18.78;67.54;97021.84;5042499;28;19924;-64
2023/07/25 00:36:13;;;;;;;;;;;;;;;18.85;67.37;97023.84;5032185;28;19936;-64
2023/07/25 00:38:41;;;;;;;;;;;;;;;18.78;67.72;97026.56;5033943;28;20401;-65
2023/07/25 00:41:09;;;;;;;;;;;;;;;18.81;67.69;97017.56;5031999;28;19925;-64
2023/07/25 00:43:36;;;;;;;;;;;;;;;18.73;67.58;97015.94;5033761;28;19925;-64
2023/07/25 00:46:05;;;;;;;;;;;;;;;18.81;67.56;97014.78;5028641;28;19925;-64
2023/07/25 00:48:33;;;;;;;;;;;;;;;18.75;67.55;97016.31;5033496;28;19929;-65
2023/07/25 00:51:00;;;;;;;;;;;;;;;18.76;67.53;97010.44;5047583;28;19925;-65
2023/07/25 00:53:30;;;;;;;;;;;;;;;18.67;67.56;97004.47;5031952;28;19968;-65
2023/07/25 00:55:58;;;;;;;;;;;;;;;18.69;67.61;97002.16;5030835;28;19987;-64
2023/07/25 00:58:26;;;;;;;;;;;;;;;18.69;67.56;96996.66;5042772;28;19979;-66
2023/07/25 01:00:54;;;;;;;;;;;;;;;18.66;67.92;96994.66;5038815;28;19925;-65
2023/07/25 01:03:24;;;;;;;;;;;;;;;18.70;67.94;96987.25;5031016;28;19991;-65
2023/07/25 01:05:52;;;;;;;;;;;;;;;18.72;67.49;96995.88;5017894;28;19943;-65
2023/07/25 01:08:20;;;;;;;;;;;;;;;18.70;67.41;97002.97;5032539;28;19935;-65
2023/07/25 01:10:49;;;;;;;;;;;;;;;18.73;67.57;96997.47;5033458;28;19925;-64
2023/07/25 01:13:17;;;;;;;;;;;;;;;18.77;67.30;96989.22;5032845;28;19925;-64
2023/07/25 01:15:45;;;;;;;;;;;;;;;18.75;67.39;96984.13;5032046;28;19944;-66
2023/07/25 01:18:13;;;;;;;;;;;;;;;18.74;67.25;96982.50;5034638;28;20035;-65
2023/07/25 01:20:41;;;;;;;;;;;;;;;18.72;67.25;96970.34;5026914;28;19925;-65
2023/07/25 01:23:09;;;;;;;;;;;;;;;18.70;67.38;96976.22;5036075;28;19956;-64
2023/07/25 01:25:39;;;;;;;;;;;;;;;18.69;67.23;96974.63;5034890;28;19925;-65
2023/07/25 01:28:09;;;;;;;;;;;;;;;18.69;66.96;96968.34;5027118;28;19925;-65
2023/07/25 01:30:36;;;;;;;;;;;;;;;18.71;66.80;96977.03;5018860;28;19925;-64
2023/07/25 01:33:04;;;;;;;;;;;;;;;18.68;67.02;96981.31;5027981;28;20329;-64
2023/07/25 01:35:32;;;;;;;;;;;;;;;18.66;66.80;96985.63;5031618;28;19925;-64
2023/07/25 01:38:00;;;;;;;;;;;;;;;18.67;67.11;96974.22;5030870;28;19933;-66
2023/07/25 01:40:28;;;;;;;;;;;;;;;18.58;66.94;96973.78;5023382;28;19929;-65
2023/07/25 01:42:57;;;;;;;;;;;;;;;18.56;66.87;96965.91;5025690;28;19925;-64
2023/07/25 01:45:25;;;;;;;;;;;;;;;18.58;66.81;96974.56;5029221;28;20927;-65
2023/07/25 01:47:53;;;;;;;;;;;;;;;18.56;66.99;96970.63;5026409;28;19929;-66
2023/07/25 01:50:21;;;;;;;;;;;;;;;18.60;66.73;96957.69;5047589;28;19924;-64
2023/07/25 01:52:49;;;;;;;;;;;;;;;18.59;66.65;96953.38;5029176;28;19924;-64
2023/07/25 01:55:17;;;;;;;;;;;;;;;18.52;66.83;96953.31;5036519;28;19931;-65
2023/07/25 01:57:44;;;;;;;;;;;;;;;18.54;66.97;96956.50;5030236;28;19925;-64
2023/07/25 02:00:14;;;;;;;;;;;;;;;18.54;66.83;96951.00;5025931;28;19925;-65
2023/07/25 02:02:42;;;;;;;;;;;;;;;18.56;66.60;96945.88;5027642;28;19925;-65
2023/07/25 02:05:11;;;;;;;;;;;;;;;18.56;66.47;96965.91;5029452;28;19929;-65
2023/07/25 02:07:38;;;;;;;;;;;;;;;18.54;66.70;96967.50;5030328;28;19932;-64
2023/07/25 02:10:07;;;;;;;;;;;;;;;18.55;66.83;96972.59;5026991;28;20287;-65
2023/07/25 02:12:36;;;;;;;;;;;;;;;18.55;67.12;96974.56;5030938;28;19925;-65
2023/07/25 02:15:04;;;;;;;;;;;;;;;18.53;67.00;96979.66;5030899;28;20299;-65
2023/07/25 02:17:33;;;;;;;;;;;;;;;18.54;66.83;96978.50;5022927;28;19951;-65
2023/07/25 02:20:01;;;;;;;;;;;;;;;18.58;66.82;96976.53;5024576;28;19925;-65
2023/07/25 02:22:29;;;;;;;;;;;;;;;18.52;66.72;96976.09;5032108;28;19932;-64
2023/07/25 02:24:57;;;;;;;;;;;;;;;18.51;66.96;96969.03;5037215;28;19932;-66
2023/07/25 02:27:24;;;;;;;;;;;;;;;18.57;67.10;96950.19;5029285;28;19925;-65
2023/07/25 02:29:52;;;;;;;;;;;;;;;18.44;67.22;96959.97;5041081;28;19929;-64
2023/07/25 02:32:20;;;;;;;;;;;;;;;18.42;67.53;96959.56;5024010;28;19930;-65
2023/07/25 02:34:50;;;;;;;;;;;;;;;18.50;67.40;96956.47;5028229;28;20374;-65
2023/07/25 02:37:17;;;;;;;;;;;;;;;18.51;67.35;96951.75;5022756;28;19925;-64
2023/07/25 02:39:45;;;;;;;;;;;;;;;18.51;67.24;96952.53;5025329;28;19937;-64
2023/07/25 02:42:13;;;;;;;;;;;;;;;18.44;67.42;96958.00;5024224;28;19935;-64
2023/07/25 02:44:41;;;;;;;;;;;;;;;18.46;67.54;96955.66;5032502;28;19932;-64
2023/07/25 02:47:09;;;;;;;;;;;;;;;18.46;67.20;96952.13;5030378;28;19932;-64
2023/07/25 02:49:39;;;;;;;;;;;;;;;18.44;67.04;96951.72;5029298;28;20050;-64
2023/07/25 02:52:09;;;;;;;;;;;;;;;18.46;67.27;96943.88;5031724;28;20326;-65
2023/07/25 02:54:37;;;;;;;;;;;;;;;18.46;67.34;96939.16;5028809;28;19978;-64
2023/07/25 02:57:05;;;;;;;;;;;;;;;18.42;67.42;96923.81;5020491;28;19991;-64
2023/07/25 02:59:35;;;;;;;;;;;;;;;18.42;67.31;96915.56;5027519;28;19929;-65
2023/07/25 03:02:03;;;;;;;;;;;;;;;18.38;67.59;96898.28;5029497;28;19925;-65
2023/07/25 03:04:31;;;;;;;;;;;;;;;18.41;67.69;96889.25;5028410;28;19932;-64
2023/07/25 03:06:59;;;;;;;;;;;;;;;18.29;67.84;96891.16;5029823;28;19929;-64
2023/07/25 03:09:28;;;;;;;;;;;;;;;18.37;67.70;96880.97;5029835;28;19925;-64
2023/07/25 03:11:56;;;;;;;;;;;;;;;18.35;67.54;96871.53;5029368;28;19925;-65
2023/07/25 03:14:24;;;;;;;;;;;;;;;18.25;67.67;96862.84;5030107;28;19929;-66
2023/07/25 03:16:52;;;;;;;;;;;;;;;18.10;68.03;96871.44;5023919;28;19925;-64
2023/07/25 03:19:20;;;;;;;;;;;;;;;18.08;68.48;96871.81;5029750;28;19933;-67
2023/07/25 03:21:47;;;;;;;;;;;;;;;18.06;68.45;96879.69;5025839;28;20306;-64
2023/07/25 03:24:15;;;;;;;;;;;;;;;18.05;68.53;96867.09;5030647;28;19925;-64
2023/07/25 03:26:44;;;;;;;;;;;;;;;18.09;68.01;96865.16;5028058;28;20382;-64
2023/07/25 03:29:12;;;;;;;;;;;;;;;18.05;68.02;96872.59;5028680;28;19931;-64
2023/07/25 03:31:40;;;;;;;;;;;;;;;18.08;68.05;96868.28;5027387;28;20029;-65
2023/07/25 03:34:08;;;;;;;;;;;;;;;18.05;68.02;96869.84;5031666;28;19925;-65
2023/07/25 03:36:36;;;;;;;;;;;;;;;18.04;67.90;96880.03;5025440;28;20010;-67
2023/07/25 03:39:04;;;;;;;;;;;;;;;18.08;67.89;96873.78;5039361;28;19932;-65
2023/07/25 03:41:32;;;;;;;;;;;;;;;18.05;67.89;96864.34;5030150;28;19928;-66
2023/07/25 03:44:02;;;;;;;;;;;;;;;17.94;67.77;96878.03;5019376;28;19984;-65
2023/07/25 03:46:30;;;;;;;;;;;;;;;17.90;68.14;96874.50;5027403;28;19975;-64
2023/07/25 03:48:58;;;;;;;;;;;;;;;17.95;68.15;96884.31;5029399;28;19956;-65
2023/07/25 03:51:26;;;;;;;;;;;;;;;17.87;68.21;96885.47;5028759;28;19982;-65
2023/07/25 03:53:54;;;;;;;;;;;;;;;17.85;68.48;96893.31;5029352;28;19956;-64
2023/07/25 03:56:22;;;;;;;;;;;;;;;17.91;68.25;96889.03;5031776;28;19977;-65
2023/07/25 03:58:50;;;;;;;;;;;;;;;17.94;68.26;96874.50;5024825;28;20729;-65
2023/07/25 04:01:19;;;;;;;;;;;;;;;17.97;68.01;96873.75;5019946;28;19932;-65
2023/07/25 04:03:47;;;;;;;;;;;;;;;17.85;67.99;96874.84;5022562;28;19925;-65
2023/07/25 04:06:15;;;;;;;;;;;;;;;17.69;68.45;96866.88;5023424;28;20488;-65
2023/07/25 04:08:43;;;;;;;;;;;;;;;17.64;68.66;96860.97;5025813;28;19929;-65
2023/07/25 04:11:10;;;;;;;;;;;;;;;17.57;69.15;96858.94;5037673;28;19925;-64
2023/07/25 04:13:38;;;;;;;;;;;;;;;17.64;69.13;96856.25;5035431;28;19925;-64
2023/07/25 04:16:24;;;;;;;;;;;;;;;17.60;69.19;96860.16;5021202;28;19965;-64
2023/07/25 04:18:53;;;;;;;;;;;;;;;17.68;69.08;96872.75;5028182;28;19925;-64
2023/07/25 04:21:28;;;;;;;;;;;;;;;17.64;69.24;96883.72;5006528;28;19926;-64
2023/07/25 04:23:56;;;;;;;;;;;;;;;17.69;69.14;96882.59;5024834;28;20016;-65
2023/07/25 04:26:24;;;;;;;;;;;;;;;17.66;69.05;96886.88;5023931;28;19978;-65
2023/07/25 04:28:51;;;;;;;;;;;;;;;17.73;68.84;96897.13;5024539;28;19959;-65
2023/07/25 04:31:20;;;;;;;;;;;;;;;17.61;69.42;96914.69;5021810;28;19975;-65
2023/07/25 04:33:49;;;;;;;;;;;;;;;17.69;69.43;96918.28;5026692;28;19933;-64
2023/07/25 04:36:22;;;;;;;;;;;;;;;17.66;69.22;96914.34;5024456;28;19925;-65
2023/07/25 04:39:00;;;;;;;;;;;;;;;17.73;69.12;96922.63;5023125;28;19925;-64
2023/07/25 04:41:28;;;;;;;;;;;;;;;17.75;69.19;96923.06;5021308;28;20023;-65
2023/07/25 04:43:56;;;;;;;;;;;;;;;17.72;69.20;96923.81;5023451;28;19929;-64
2023/07/25 04:46:24;;;;;;;;;;;;;;;17.74;69.11;96935.22;5025280;28;19937;-63
2023/07/25 04:48:55;;;;;;;;;;;;;;;17.86;68.48;96923.13;5039239;28;19929;-63
2023/07/25 04:51:23;;;;;;;;;;;;;;;17.84;68.52;96930.16;5023122;28;19929;-63
2023/07/25 04:53:51;;;;;;;;;;;;;;;17.89;68.29;96927.84;5025172;28;20462;-64
2023/07/25 04:56:19;;;;;;;;;;;;;;;17.89;68.43;96932.56;5024228;28;19926;-63
2023/07/25 04:58:47;;;;;;;;;;;;;;;17.85;68.69;96940.00;5028817;28;20015;-64
2023/07/25 05:01:15;;;;;;;;;;;;;;;17.73;68.79;96938.34;5020034;28;19929;-64
2023/07/25 05:03:42;;;;;;;;;;;;;;;17.85;68.62;96931.78;5026512;28;19932;-63
2023/07/25 05:06:12;;;;;;;;;;;;;;;17.88;68.26;96929.03;5029105;28;19932;-63
2023/07/25 05:08:40;;;;;;;;;;;;;;;17.88;68.48;96917.25;5025774;28;20408;-63
2023/07/25 05:11:11;;;;;;;;;;;;;;;17.86;68.46;96919.59;5019714;28;19925;-64
2023/07/25 05:13:38;;;;;;;;;;;;;;;17.88;68.60;96920.00;5026373;28;19925;-64
2023/07/25 05:16:06;;;;;;;;;;;;;;;17.92;68.28;96920.81;5028309;28;20072;-62
2023/07/25 05:18:34;;;;;;;;;;;;;;;17.95;68.07;96918.09;5026990;28;19929;-64
2023/07/25 05:21:02;;;;;;;;;;;;;;;17.94;68.01;96910.22;5027164;28;19926;-67
2023/07/25 05:23:31;;;;;;;;;;;;;;;17.94;68.26;96907.47;5031261;28;19947;-63
2023/07/25 05:25:59;;;;;;;;;;;;;;;17.95;68.16;96906.28;5023559;28;19940;-64
2023/07/25 05:28:27;;;;;;;;;;;;;;;17.92;68.30;96893.34;5030265;28;19971;-63
2023/07/25 05:30:55;;;;;;;;;;;;;;;17.94;68.26;96885.47;5031670;28;20251;-63
2023/07/25 05:33:23;;;;;;;;;;;;;;;17.95;68.24;96881.56;5035617;28;20272;-63
2023/07/25 05:35:59;;;;;;;;;;;;;;;17.92;68.17;96874.88;5033961;28;19936;-64
2023/07/25 05:38:27;;;;;;;;;;;;;;;17.97;68.01;96873.75;5026106;28;20517;-63
2023/07/25 05:40:56;;;;;;;;;;;;;;;17.95;68.21;96874.13;5029377;28;19937;-63
2023/07/25 05:43:24;;;;;;;;;;;;;;;17.96;67.93;96872.94;5032193;28;19929;-63
2023/07/25 05:45:52;;;;;;;;;;;;;;;17.92;68.27;96869.38;5038979;28;19926;-64
2023/07/25 05:48:20;;;;;;;;;;;;;;;17.95;68.26;96870.56;5031174;28;19932;-63
2023/07/25 05:50:50;;;;;;;;;;;;;;;18.05;68.05;96875.34;5029367;28;19935;-63
2023/07/25 05:53:20;;;;;;;;;;;;;;;18.07;67.88;96873.00;5032691;28;20021;-64
2023/07/25 05:55:48;;;;;;;;;;;;;;;18.12;67.83;96885.59;5031316;28;19925;-64
2023/07/25 05:58:17;;;;;;;;;;;;;;;18.09;67.61;96880.84;5027118;28;19930;-63
2023/07/25 06:00:45;;;;;;;;;;;;;;;18.12;67.55;96875.38;5026318;28;19968;-63
2023/07/25 06:03:14;;;;;;;;;;;;;;;18.06;67.92;96883.22;5030012;28;19925;-64
2023/07/25 06:05:42;;;;;;;;;;;;;;;18.04;67.75;96868.25;5028804;28;19996;-63
2023/07/25 06:08:10;;;;;;;;;;;;;;;18.04;67.87;96891.03;5037857;28;19956;-64
2023/07/25 06:10:40;;;;;;;;;;;;;;;18.04;67.94;96898.50;5025875;28;19931;-64
2023/07/25 06:13:08;;;;;;;;;;;;;;;18.01;68.24;96907.53;5030586;28;20302;-64
2023/07/25 06:15:37;;;;;;;;;;;;;;;18.02;68.04;96911.84;5043366;28;19925;-63
2023/07/25 06:18:05;;;;;;;;;;;;;;;17.95;68.54;96900.78;5031502;28;20382;-64
2023/07/25 06:20:33;;;;;;;;;;;;;;;18.11;68.69;96901.31;5032357;28;19925;-63
2023/07/25 06:23:01;;;;;;;;;;;;;;;18.03;69.58;96881.22;5023496;28;19972;-64
2023/07/25 06:25:29;;;;;;;;;;;;;;;18.02;70.04;96881.63;5032262;28;19935;-63
2023/07/25 06:27:57;;;;;;;;;;;;;;;18.02;70.82;96881.63;5029923;28;19929;-63
2023/07/25 06:30:25;;;;;;;;;;;;;;;17.99;72.66;96871.38;5016331;28;21773;-63
2023/07/25 06:32:55;;;;;;;;;;;;;;;18.02;73.75;96870.63;5031117;28;19925;-64
2023/07/25 06:35:23;;;;;;;;;;;;;;;17.97;75.39;96876.50;5020679;28;20009;-63
2023/07/25 06:37:50;;;;;;;;;;;;;;;17.90;75.54;96880.00;5029014;28;19929;-63
2023/07/25 06:40:18;;;;;;;;;;;;;;;17.94;74.61;96880.00;5023425;28;19930;-63
2023/07/25 06:42:46;;;;;;;;;;;;;;;17.92;74.46;96865.84;5031352;28;19978;-64
2023/07/25 06:45:16;;;;;;;;;;;;;;;17.81;73.50;96854.81;5026986;28;20292;-64
2023/07/25 06:47:44;;;;;;;;;;;;;;;17.79;73.26;96846.97;5036169;28;19925;-63
2023/07/25 06:50:16;;;;;;;;;;;;;;;17.73;73.31;96837.47;5043899;28;20342;-64
2023/07/25 06:52:43;;;;;;;;;;;;;;;17.67;73.93;96839.00;5011326;28;19926;-63
2023/07/25 06:55:11;;;;;;;;;;;;;;;17.61;74.15;96834.25;5031402;28;19971;-63
2023/07/25 06:57:39;;;;;;;;;;;;;;;17.63;75.30;96827.22;5031724;28;19925;-63
2023/07/25 07:00:08;;;;;;;;;;;;;;;17.68;76.06;96823.31;5025342;28;19932;-64
2023/07/25 07:02:36;;;;;;;;;;;;;;;17.70;75.66;96820.97;5031954;28;19925;-63
2023/07/25 07:05:04;;;;;;;;;;;;;;;17.68;75.86;96810.34;5035884;28;19932;-64
2023/07/25 07:07:47;;;;;;;;;;;;;;;17.60;76.34;96797.78;5025336;28;19968;-64
2023/07/25 07:10:15;;;;;;;;;;;;;;;17.58;76.74;96793.81;5023315;28;19929;-64
2023/07/25 07:12:47;;;;;;;;;;;;;;;17.62;76.61;96792.66;5029346;28;19926;-63
2023/07/25 07:15:16;;;;;;;;;;;;;;;17.70;76.94;96804.50;5029250;28;19991;-64
2023/07/25 07:17:44;;;;;;;;;;;;;;;17.73;76.98;96799.03;5026976;28;19929;-64
2023/07/25 07:20:13;;;;;;;;;;;;;;;17.76;77.09;96801.03;5024008;28;20389;-64
2023/07/25 07:22:41;;;;;;;;;;;;;;;17.79;77.14;96792.03;5035161;28;19944;-64
2023/07/25 07:25:11;;;;;;;;;;;;;;;17.79;77.46;96794.75;5030544;28;19929;-64
2023/07/25 07:27:38;;;;;;;;;;;;;;;17.78;78.16;96790.41;5032973;28;20337;-63
2023/07/25 07:30:07;;;;;;;;;;;;;;;17.76;77.50;96792.78;5015464;28;19929;-64
2023/07/25 07:32:35;;;;;;;;;;;;;;;17.66;78.24;96804.47;5032768;28;19925;-63
2023/07/25 07:35:03;;;;;;;;;;;;;;;17.66;77.76;96809.97;5027015;28;19933;-64
2023/07/25 07:37:33;;;;;;;;;;;;;;;17.77;77.84;96815.53;5024841;28;20012;-63
2023/07/25 07:40:03;;;;;;;;;;;;;;;17.75;78.07;96813.19;5022269;28;20036;-63
2023/07/25 07:42:34;;;;;;;;;;;;;;;17.79;78.23;96811.25;5025572;28;20016;-63
2023/07/25 07:45:02;;;;;;;;;;;;;;;17.76;79.42;96820.25;5024478;28;19956;-68
2023/07/25 07:47:30;;;;;;;;;;;;;;;17.77;78.60;96832.03;5022011;28;19940;-64
2023/07/25 07:49:59;;;;;;;;;;;;;;;17.66;78.58;96848.41;5024962;28;20291;-63
2023/07/25 07:52:34;;;;;;;;;;;;;;;17.63;78.79;96860.19;5020036;28;20586;-63
2023/07/25 07:55:10;;;;;;;;;;;;;;;17.49;79.03;96862.81;5020134;28;19937;-63
2023/07/25 07:57:40;;;;;;;;;;;;;;;17.54;80.89;96870.72;5038711;28;19925;-64
2023/07/25 08:00:09;;;;;;;;;;;;;;;17.56;81.03;96860.13;5022196;28;19932;-64
2023/07/25 08:02:40;;;;;;;;;;;;;;;17.54;81.74;96851.47;5028125;28;19944;-63
2023/07/25 08:05:08;;;;;;;;;;;;;;;17.54;81.48;96852.28;5028223;28;20012;-65
2023/07/25 08:07:36;;;;;;;;;;;;;;;17.61;82.21;96854.25;5029084;28;19932;-63
2023/07/25 08:10:06;;;;;;;;;;;;;;;17.53;83.19;96855.41;5028603;28;19925;-63
2023/07/25 08:12:34;;;;;;;;;;;;;;;17.58;83.14;96855.03;5024492;28;20338;-64
2023/07/25 08:15:04;;;;;;;;;;;;;;;17.55;82.07;96869.53;5025155;28;20294;-67
2023/07/25 08:17:35;;;;;;;;;;;;;;;17.56;81.52;96860.13;5026201;28;20374;-63
2023/07/25 08:20:03;;;;;;;;;;;;;;;17.52;80.26;96870.28;5028151;28;19925;-64
2023/07/25 08:22:31;;;;;;;;;;;;;;;17.46;81.08;96866.31;5026921;28;19964;-65
2023/07/25 08:24:59;;;;;;;;;;;;;;;17.49;81.49;96882.03;5022620;28;19929;-64
2023/07/25 08:27:27;;;;;;;;;;;;;;;17.53;81.20;96889.16;5029436;28;19961;-64
2023/07/25 08:29:56;;;;;;;;;;;;;;;17.55;81.71;96886.78;5032551;28;19933;-64
2023/07/25 08:32:25;;;;;;;;;;;;;;;17.51;81.48;96888.72;5023111;28;19929;-63
2023/07/25 08:34:54;;;;;;;;;;;;;;;17.49;81.69;96888.31;5025406;28;19925;-65
2023/07/25 08:37:25;;;;;;;;;;;;;;;17.43;79.74;96897.31;5027195;28;20408;-63
2023/07/25 08:39:53;;;;;;;;;;;;;;;17.50;78.46;96895.38;5026078;28;19925;-64
2023/07/25 08:42:21;;;;;;;;;;;;;;;17.41;77.68;96902.38;5026821;28;19933;-64
2023/07/25 08:44:49;;;;;;;;;;;;;;;17.47;77.18;96892.59;5029215;28;19960;-66
2023/07/25 08:47:22;;;;;;;;;;;;;;;17.31;78.36;96897.56;5029710;28;20503;-63
2023/07/25 08:49:52;;;;;;;;;;;;;;;17.25;78.91;96895.19;5031572;28;19935;-64
2023/07/25 08:52:20;;;;;;;;;;;;;;;17.16;79.06;96892.00;5035104;28;19937;-63
2023/07/25 08:54:49;;;;;;;;;;;;;;;17.13;79.04;96887.25;5040156;28;19929;-60
2023/07/25 08:57:18;;;;;;;;;;;;;;;17.18;79.32;96884.16;5027234;28;20578;-59
2023/07/25 08:59:46;;;;;;;;;;;;;;;17.15;80.03;96884.94;5028718;28;19971;-59
2023/07/25 09:02:14;;;;;;;;;;;;;;;17.15;80.93;96875.88;5034021;28;19933;-59
2023/07/25 09:04:42;;;;;;;;;;;;;;;17.17;81.58;96876.31;5033250;28;19934;-58
2023/07/25 09:07:13;;;;;;;;;;;;;;;17.21;81.21;96875.16;5030830;28;19925;-59
2023/07/25 09:09:41;;;;;;;;;;;;;;;17.18;80.56;96867.69;5032244;28;19936;-59
2023/07/25 09:12:09;;;;;;;;;;;;;;;17.24;80.04;96870.88;5032913;28;19925;-58
2023/07/25 09:14:38;;;;;;;;;;;;;;;17.23;78.85;96853.63;5041090;28;19925;-60
2023/07/25 09:17:06;;;;;;;;;;;;;;;17.29;79.13;96863.06;5025224;28;19960;-59
2023/07/25 09:19:34;;;;;;;;;;;;;;;17.26;79.79;96855.59;5026655;28;20363;-59
2023/07/25 09:22:02;;;;;;;;;;;;;;;17.22;79.90;96854.78;5040830;28;19924;-61
2023/07/25 09:24:38;;;;;;;;;;;;;;;17.35;79.90;96846.25;5029207;28;19925;-59
2023/07/25 09:27:10;;;;;;;;;;;;;;;17.41;80.21;96836.47;5029496;28;20011;-59
2023/07/25 09:29:38;;;;;;;;;;;;;;;17.37;79.82;96838.44;5024614;28;19930;-58
2023/07/25 09:32:08;;;;;;;;;;;;;;;17.36;79.91;96834.09;5031756;28;19932;-59
2023/07/25 09:34:36;;;;;;;;;;;;;;;17.44;79.67;96827.47;5028827;28;20007;-58
2023/07/25 09:37:06;;;;;;;;;;;;;;;17.37;80.00;96830.97;5029052;28;19956;-58
2023/07/25 09:39:34;;;;;;;;;;;;;;;17.57;80.51;96836.97;5026517;28;20286;-58
2023/07/25 09:42:03;;;;;;;;;;;;;;;17.59;79.78;96833.88;5030065;28;20339;-59
2023/07/25 09:44:32;;;;;;;;;;;;;;;17.66;78.30;96831.94;5028853;28;19929;-58
2023/07/25 09:47:02;;;;;;;;;;;;;;;17.75;77.80;96835.16;5024146;28;20374;-61
2023/07/25 09:49:30;;;;;;;;;;;;;;;17.78;75.56;96834.38;5030287;28;20394;-59
2023/07/25 09:51:59;;;;;;;;;;;;;;;17.87;76.50;96834.03;5030352;28;19932;-58
2023/07/25 09:54:27;;;;;;;;;;;;;;;17.92;76.15;96841.13;5024460;28;19936;-58
2023/07/25 09:56:58;;;;;;;;;;;;;;;17.95;75.46;96834.84;5036161;28;19962;-59
2023/07/25 09:59:27;;;;;;;;;;;;;;;18.05;76.70;96837.63;5021123;28;20267;-59
2023/07/25 10:01:55;;;;;;;;;;;;;;;18.12;76.07;96839.66;5033044;28;19925;-59
2023/07/25 10:04:23;;;;;;;;;;;;;;;18.13;74.90;96843.97;5028218;28;19967;-59
2023/07/25 10:06:52;;;;;;;;;;;;;;;18.22;74.66;96841.66;5019995;28;19933;-58
2023/07/25 10:09:20;;;;;;;;;;;;;;;18.18;73.56;96824.34;5043688;28;19971;-59
2023/07/25 10:11:50;;;;;;;;;;;;;;;18.26;74.15;96825.94;5034165;28;19931;-59
2023/07/25 10:14:18;;;;;;;;;;;;;;;18.33;73.59;96822.44;5031930;28;19931;-59
2023/07/25 10:16:47;;;;;;;;;;;;;;;18.39;73.08;96826.38;5024891;28;20402;-58
2023/07/25 10:19:15;;;;;;;;;;;;;;;18.55;73.98;96826.81;5033646;28;19932;-60
2023/07/25 10:21:46;;;;;;;;;;;;;;;18.61;73.48;96834.69;5025649;28;20345;-59
2023/07/25 10:24:14;;;;;;;;;;;;;;;18.61;71.55;96835.47;5043329;28;19925;-59
2023/07/25 10:26:52;;;;;;;;;;;;;;;18.67;72.07;96833.13;5029310;28;19925;-59
2023/07/25 10:29:36;;;;;;;;;;;;;;;18.78;72.62;96829.22;5030062;28;19963;-59
2023/07/25 10:32:06;;;;;;;;;;;;;;;18.74;71.78;96838.66;5031098;28;19929;-59
2023/07/25 10:34:44;;;;;;;;;;;;;;;18.75;71.43;96837.47;5029528;28;19925;-60
2023/07/25 10:37:21;;;;;;;;;;;;;;;18.79;71.88;96824.53;5021630;28;19963;-58
2023/07/25 10:40:04;;;;;;;;;;;;;;;18.84;72.94;96824.91;5036237;28;19928;-59
2023/07/25 10:42:36;;;;;;;;;;;;;;;18.87;73.20;96825.31;5026051;28;20650;-58
2023/07/25 10:45:08;;;;;;;;;;;;;;;18.92;73.03;96822.19;5022521;28;19979;-60
2023/07/25 10:47:48;;;;;;;;;;;;;;;18.98;73.02;96818.66;5027732;28;19925;-58
2023/07/25 10:50:19;;;;;;;;;;;;;;;19.02;72.56;96826.91;5023073;28;19932;-58
2023/07/25 10:52:47;;;;;;;;;;;;;;;19.00;71.97;96829.25;5026635;28;20286;-58
2023/07/25 10:55:15;;;;;;;;;;;;;;;19.08;72.29;96820.63;5027299;28;19932;-58
2023/07/25 10:57:44;;;;;;;;;;;;;;;19.13;72.15;96822.19;5030319;28;19925;-59
2023/07/25 11:00:13;;;;;;;;;;;;;;;19.06;72.27;96816.66;5026788;28;19936;-59
2023/07/25 11:02:43;;;;;;;;;;;;;;;19.01;70.90;96809.59;5025540;28;19925;-59
2023/07/25 11:05:22;;;;;;;;;;;;;;;19.04;70.77;96808.03;5027097;28;20442;-59
2023/07/25 11:07:54;;;;;;;;;;;;;;;19.08;71.05;96806.06;5027958;28;19931;-59
2023/07/25 11:10:23;;;;;;;;;;;;;;;19.18;70.98;96810.00;5026222;28;19969;-59
2023/07/25 11:12:52;;;;;;;;;;;;;;;19.24;71.48;96809.19;5021883;28;19925;-59
2023/07/25 11:15:20;;;;;;;;;;;;;;;19.32;72.00;96801.72;5025946;28;19925;-60
2023/07/25 11:18:07;;;;;;;;;;;;;;;19.35;70.56;96798.16;5022030;28;19929;-60
2023/07/25 11:20:36;;;;;;;;;;;;;;;19.35;70.48;96803.69;5027215;28;19973;-59
2023/07/25 11:23:04;;;;;;;;;;;;;;;19.38;70.56;96802.88;5024659;28;19929;-60
2023/07/25 11:25:32;;;;;;;;;;;;;;;19.36;69.53;96803.28;5027893;28;19929;-59
2023/07/25 11:28:00;;;;;;;;;;;;;;;19.41;69.11;96790.28;5031437;28;19929;-59
2023/07/25 11:30:29;;;;;;;;;;;;;;;19.48;70.33;96784.75;5027338;28;20385;-59
2023/07/25 11:32:57;;;;;;;;;;;;;;;19.46;69.72;96784.38;5017445;28;19929;-60
2023/07/25 11:35:25;;;;;;;;;;;;;;;19.49;69.38;96769.81;5027537;28;19932;-60
2023/07/25 11:37:59;;;;;;;;;;;;;;;19.60;69.90;96778.84;5032038;28;19990;-59
2023/07/25 11:40:29;;;;;;;;;;;;;;;19.67;69.36;96772.56;5029898;28;20340;-61
2023/07/25 11:42:57;;;;;;;;;;;;;;;19.73;68.25;96768.97;5031821;28;19983;-59
2023/07/25 11:45:25;;;;;;;;;;;;;;;19.81;67.88;96762.25;5024494;28;19925;-64
2023/07/25 11:47:53;;;;;;;;;;;;;;;19.91;67.12;96759.84;5027575;28;19991;-60
2023/07/25 11:50:20;;;;;;;;;;;;;;;19.93;67.54;96746.47;5019406;28;20271;-59
2023/07/25 11:52:57;;;;;;;;;;;;;;;19.99;67.95;96758.66;5028547;28;19924;-59
2023/07/25 11:55:25;;;;;;;;;;;;;;;20.00;66.55;96751.94;5021805;28;20448;-59
2023/07/25 11:57:53;;;;;;;;;;;;;;;20.06;66.33;96742.06;5027861;28;19936;-59
2023/07/25 12:00:22;;;;;;;;;;;;;;;20.14;67.31;96740.84;5019837;28;20015;-59
2023/07/25 12:02:50;;;;;;;;;;;;;;;20.12;66.36;96737.69;5023982;28;20283;-59
2023/07/25 12:05:28;;;;;;;;;;;;;;;20.06;67.38;96737.31;5030619;28;19929;-60
2023/07/25 12:08:02;;;;;;;;;;;;;;;20.07;66.19;96729.84;5025844;28;19925;-60
2023/07/25 12:10:31;;;;;;;;;;;;;;;20.09;65.89;96741.28;5016272;28;19936;-61
2023/07/25 12:12:59;;;;;;;;;;;;;;;20.09;65.30;96735.75;5036906;28;19925;-59
2023/07/25 12:15:42;;;;;;;;;;;;;;;20.13;66.66;96734.56;5018832;28;19929;-59
2023/07/25 12:18:14;;;;;;;;;;;;;;;20.31;66.14;96728.13;5039690;28;19935;-59
2023/07/25 12:20:43;;;;;;;;;;;;;;;20.24;65.40;96728.16;5025954;28;19928;-59
2023/07/25 12:23:29;;;;;;;;;;;;;;;20.28;65.28;96729.72;5029856;28;19925;-59
2023/07/25 12:25:57;;;;;;;;;;;;;;;20.31;64.69;96720.66;5020852;28;20070;-59
2023/07/25 12:28:25;;;;;;;;;;;;;;;20.36;64.65;96727.72;5025185;28;19932;-59
2023/07/25 12:30:53;;;;;;;;;;;;;;;20.45;65.01;96730.00;5022441;28;19929;-59
2023/07/25 12:33:21;;;;;;;;;;;;;;;20.47;65.52;96713.88;5031528;28;19959;-59
2023/07/25 12:35:50;;;;;;;;;;;;;;;20.47;64.08;96730.44;5022221;28;19948;-60
2023/07/25 12:38:18;;;;;;;;;;;;;;;20.48;64.25;96709.91;5024663;28;20414;-59
2023/07/25 12:40:47;;;;;;;;;;;;;;;20.54;64.30;96716.56;5029561;28;20016;-59
2023/07/25 12:43:15;;;;;;;;;;;;;;;20.49;63.55;96717.78;5022497;28;19929;-59
2023/07/25 12:45:44;;;;;;;;;;;;;;;20.48;63.86;96704.41;5016848;28;20393;-59
2023/07/25 12:48:12;;;;;;;;;;;;;;;20.39;64.77;96699.31;5021730;28;19925;-59
2023/07/25 12:50:41;;;;;;;;;;;;;;;20.33;64.77;96692.66;5023955;28;19932;-60
2023/07/25 12:53:09;;;;;;;;;;;;;;;20.23;65.38;96705.31;5020861;28;20294;-60
2023/07/25 12:55:38;;;;;;;;;;;;;;;20.11;67.12;96725.88;5026472;28;19926;-59
2023/07/25 12:58:07;;;;;;;;;;;;;;;19.96;67.31;96727.13;5028136;28;19938;-59